Fulda, Indiana
Current Conditions -  °F | °C
As of 11:15 AM on Sunday 23 Nov 2014 (Local Time) from KHNB Reporting Station
Overcast Overcast  
Wind Chill: 54°   Ceiling: 2600
Heat Index: 54°   Visibility: 10mi
Dew Point: 48°   Wind: 9mph
Humidity: 82%   Direction: 140°SE
Pressure: 29.72"   Gusts: NA
Location:  38.11°N, 86.84°W
Report Text: KHNB 231715Z AUTO 14008KT 10SM OVC026 12/09 A2972 RMK AO1
Loading
Personal Weather Stations






























Interactive Weather Map New forecast layout! Learn more

10-Day Weather Forecast

Advertisements
Track Severe Weather on mobile